createdAt,value
2023-04-16T00:00:53.105Z,98.6172
2023-04-16T00:01:53.850Z,98.3709
2023-04-16T00:02:54.657Z,98.2734
2023-04-16T00:03:55.935Z,98.3487
2023-04-16T00:04:56.746Z,98.3951
2023-04-16T00:05:57.358Z,98.4063
2023-04-16T00:06:58.051Z,98.3826
2023-04-16T00:07:58.662Z,98.3684
2023-04-16T00:08:59.323Z,98.4117
2023-04-16T00:10:00.008Z,98.2767
2023-04-16T00:11:00.673Z,98.3514
2023-04-16T00:12:01.332Z,98.3279
2023-04-16T00:13:02.053Z,98.4408
2023-04-16T00:14:02.663Z,98.4318
2023-04-16T00:15:03.332Z,98.5159
2023-04-16T00:16:03.994Z,98.6555
2023-04-16T00:17:04.736Z,98.5094
2023-04-16T00:18:05.459Z,98.3597
2023-04-16T00:19:06.133Z,98.4217
2023-04-16T00:20:06.775Z,98.1578
2023-04-16T00:21:07.441Z,97.6254
2023-04-16T00:22:08.117Z,97.6462
2023-04-16T00:23:08.814Z,97.8246
2023-04-16T00:24:09.451Z,97.9276
2023-04-16T00:25:10.100Z,98.8427
2023-04-16T00:26:10.739Z,99.7745
2023-04-16T00:27:11.722Z,99.8559
2023-04-16T00:28:12.337Z,99.7744
2023-04-16T00:29:13.003Z,99.8501
2023-04-16T00:30:13.623Z,99.8352
2023-04-16T00:31:14.568Z,99.7172
2023-04-16T00:32:15.248Z,99.5398
2023-04-16T00:33:15.900Z,99.3755
2023-04-16T00:34:18.408Z,99.0483
2023-04-16T00:35:19.066Z,98.6404
2023-04-16T00:36:19.943Z,98.6059
2023-04-16T00:37:20.570Z,98.6272
2023-04-16T00:38:21.230Z,98.5804
2023-04-16T00:39:21.999Z,98.4766
2023-04-16T00:40:22.683Z,98.3742
2023-04-16T00:41:23.298Z,98.1828
2023-04-16T00:42:23.994Z,98.1546
2023-04-16T00:43:24.636Z,98.3401
2023-04-16T00:44:25.297Z,98.2012
2023-04-16T00:45:25.956Z,98.2000
2023-04-16T00:46:26.680Z,98.3194
2023-04-16T00:47:27.310Z,98.1906
2023-04-16T00:48:28.017Z,98.1819
2023-04-16T00:49:28.646Z,98.3318
2023-04-16T00:50:29.314Z,98.4710
2023-04-16T00:51:29.997Z,98.4387
2023-04-16T00:52:30.621Z,98.2207
2023-04-16T00:53:31.295Z,98.1705
2023-04-16T00:54:31.959Z,97.8864
2023-04-16T00:55:32.633Z,97.9325
2023-04-16T00:56:33.278Z,98.1546
2023-04-16T00:57:33.981Z,98.2072
2023-04-16T00:58:34.643Z,98.3170
2023-04-16T00:59:35.288Z,98.1794
2023-04-16T01:00:35.933Z,98.0159
2023-04-16T01:01:36.616Z,98.2318
2023-04-16T01:02:37.336Z,98.3823
2023-04-16T01:03:38.179Z,98.2364
2023-04-16T01:04:38.877Z,98.4893
2023-04-16T01:05:39.544Z,98.2943
2023-04-16T01:06:40.260Z,98.3089
2023-04-16T01:07:40.904Z,98.4043
2023-04-16T01:08:41.534Z,98.4605
2023-04-16T01:09:42.208Z,98.4486
2023-04-16T01:10:42.872Z,98.5338
2023-04-16T01:11:43.493Z,98.6881
2023-04-16T01:12:44.130Z,98.4307
2023-04-16T01:13:44.778Z,98.5834
2023-04-16T01:14:45.878Z,98.8081
2023-04-16T01:15:46.530Z,98.4634
2023-04-16T01:16:47.184Z,98.4165
2023-04-16T01:17:47.856Z,98.4246
2023-04-16T01:18:48.483Z,98.4529
2023-04-16T01:19:49.173Z,98.3829
2023-04-16T01:20:49.870Z,98.3264
2023-04-16T01:21:50.550Z,98.0011
2023-04-16T01:22:51.254Z,97.7210
2023-04-16T01:23:51.928Z,97.6730
2023-04-16T01:24:52.666Z,97.6890
2023-04-16T01:25:53.365Z,97.9042
2023-04-16T01:26:54.047Z,98.0778
2023-04-16T01:27:54.728Z,98.2040
2023-04-16T01:28:55.400Z,98.1175
2023-04-16T01:29:56.092Z,98.3768
2023-04-16T01:30:56.799Z,98.2574
2023-04-16T01:31:57.468Z,98.2618
2023-04-16T01:32:58.200Z,98.3533
2023-04-16T01:33:59.118Z,98.3746
2023-04-16T01:34:59.818Z,98.5477
2023-04-16T01:36:00.587Z,98.6838
2023-04-16T01:37:01.419Z,98.5946
2023-04-16T01:38:02.091Z,98.2256
2023-04-16T01:39:02.764Z,98.0606
2023-04-16T01:40:03.453Z,98.3663
2023-04-16T01:41:04.163Z,98.3749
2023-04-16T01:42:04.897Z,98.2619
2023-04-16T01:43:05.603Z,98.3589
2023-04-16T01:44:06.297Z,98.5259
2023-04-16T01:45:06.979Z,98.5476
2023-04-16T01:46:07.682Z,98.6928
2023-04-16T01:47:08.362Z,98.7101
2023-04-16T01:48:09.079Z,98.3811
2023-04-16T01:49:09.949Z,98.4088
2023-04-16T01:50:10.700Z,98.6010
2023-04-16T01:51:11.658Z,98.5277
2023-04-16T01:52:12.331Z,98.5434
2023-04-16T01:53:13.012Z,98.4809
2023-04-16T01:54:13.686Z,98.4595
2023-04-16T01:55:14.404Z,98.5100
2023-04-16T01:56:15.106Z,98.5182
2023-04-16T01:57:15.776Z,98.5864
2023-04-16T01:58:16.439Z,98.7360
2023-04-16T01:59:17.358Z,98.5646
2023-04-16T02:00:18.043Z,98.4592
2023-04-16T02:01:18.809Z,98.7264
2023-04-16T02:02:19.575Z,99.0080
2023-04-16T02:03:20.419Z,99.1902
2023-04-16T02:04:21.144Z,99.0983
2023-04-16T06:48:58.668Z,98.9975
2023-04-16T06:49:52.696Z,99.9373
2023-04-16T06:50:53.493Z,99.9294
2023-04-16T06:51:54.167Z,99.9929
2023-04-16T06:52:54.856Z,100.0000
2023-04-16T06:53:55.659Z,100.0000
2023-04-16T06:54:56.407Z,100.0000
2023-04-16T06:55:57.227Z,100.0000
2023-04-16T06:56:58.150Z,100.0000
2023-04-16T06:57:58.771Z,100.0000
2023-04-16T06:58:59.452Z,100.0000
2023-04-16T07:00:00.243Z,100.0000
2023-04-16T07:01:00.995Z,100.0000
2023-04-16T07:02:01.873Z,100.0000
2023-04-16T07:03:03.130Z,100.0000
2023-04-16T07:04:04.041Z,100.0000
2023-04-16T07:05:04.852Z,100.0000
2023-04-16T07:06:05.532Z,100.0000
2023-04-16T07:07:06.238Z,100.0000
2023-04-16T07:08:06.951Z,100.0000
2023-04-16T07:09:07.788Z,100.0000
2023-04-16T07:10:08.555Z,99.9855
2023-04-16T07:11:09.262Z,99.9950
2023-04-16T07:12:09.933Z,100.0000
2023-04-16T07:13:10.864Z,100.0000
2023-04-16T07:14:11.746Z,100.0000
2023-04-16T07:15:12.418Z,100.0000
2023-04-16T07:16:13.469Z,100.0000
2023-04-16T07:17:14.145Z,100.0000
2023-04-16T07:18:14.848Z,100.0000
2023-04-16T07:19:15.547Z,100.0000
2023-04-16T07:20:16.262Z,100.0000
2023-04-16T07:21:17.478Z,100.0000
2023-04-16T07:22:18.114Z,100.0000
2023-04-16T07:23:18.820Z,100.0000
2023-04-16T07:24:19.570Z,100.0000
2023-04-16T07:25:20.252Z,100.0000
2023-04-16T07:26:20.929Z,100.0000
2023-04-16T07:27:21.751Z,99.8866
2023-04-16T07:28:22.410Z,99.7228
2023-04-16T07:29:23.290Z,99.7111
2023-04-16T07:30:24.098Z,99.5052
2023-04-16T07:31:24.835Z,99.4797
2023-04-16T07:32:25.626Z,99.5577
2023-04-16T07:33:26.559Z,99.4940
2023-04-16T07:34:27.293Z,99.5930
2023-04-16T07:35:27.982Z,99.6836
2023-04-16T07:36:28.646Z,99.8276
2023-04-16T07:37:29.369Z,99.9524
2023-04-16T07:38:30.026Z,99.9977
2023-04-16T07:39:30.717Z,99.9706
2023-04-16T07:40:31.427Z,99.7177
2023-04-16T07:41:32.367Z,99.5468
2023-04-16T07:42:33.035Z,99.3576
2023-04-16T07:47:58.135Z,99.4700
2023-04-16T07:48:51.853Z,99.1630
2023-04-16T07:49:52.769Z,98.7689
2023-04-16T07:50:53.455Z,98.7629
2023-04-16T07:51:54.381Z,98.7682
2023-04-16T07:52:55.242Z,98.5318
2023-04-16T07:53:56.000Z,98.7486
2023-04-16T07:54:56.859Z,98.8164
2023-04-16T07:55:57.732Z,98.8481
2023-04-16T07:56:58.478Z,99.0557
2023-04-16T07:57:59.689Z,99.0110
2023-04-16T07:59:07.833Z,99.1744
2023-04-16T08:00:03.738Z,99.0885
2023-04-16T08:01:04.420Z,98.8621
2023-04-16T08:02:05.186Z,99.2659
2023-04-16T08:03:06.011Z,99.2339
2023-04-16T08:04:07.087Z,98.8484
2023-04-16T08:05:07.865Z,98.7839
2023-04-16T08:06:08.568Z,98.9998
2023-04-16T08:07:09.241Z,98.9583
2023-04-16T08:08:11.457Z,99.0746
2023-04-16T08:09:12.294Z,99.0596
2023-04-16T08:10:13.043Z,99.2202
2023-04-16T08:11:13.848Z,98.9404
2023-04-16T08:12:14.546Z,98.9985
2023-04-16T08:18:09.950Z,98.9569
2023-04-16T08:19:10.970Z,98.4824
2023-04-16T08:20:15.060Z,98.0440
2023-04-16T08:21:15.328Z,98.3026
2023-04-16T08:22:16.305Z,98.5126
2023-04-16T08:23:17.208Z,98.7077
2023-04-16T08:24:17.918Z,98.4385
2023-04-16T08:25:18.605Z,98.5969
2023-04-16T08:26:19.561Z,98.4314
2023-04-16T08:27:20.502Z,98.1796
2023-04-16T08:28:21.230Z,98.6178
2023-04-16T08:29:22.388Z,98.4440
2023-04-16T08:30:23.064Z,98.4232
2023-04-16T08:31:23.836Z,98.4306
2023-04-16T08:32:24.637Z,98.4938
2023-04-16T08:33:25.636Z,98.4631
2023-04-16T08:34:26.368Z,98.4818
2023-04-16T08:35:27.112Z,98.9338
2023-04-16T08:36:27.853Z,98.8614
2023-04-16T08:37:28.542Z,98.7398
2023-04-16T08:38:29.505Z,98.5316
2023-04-16T08:39:30.183Z,98.6081
2023-04-16T08:40:30.950Z,98.7881
2023-04-16T08:41:31.648Z,99.0022
2023-04-16T08:42:32.394Z,98.4687
2023-04-16T08:43:33.093Z,98.7744
2023-04-16T08:44:33.808Z,98.8498
2023-04-16T08:45:34.565Z,98.8491
2023-04-16T08:46:35.311Z,98.4040
2023-04-16T08:47:36.019Z,97.5866
2023-04-16T08:48:36.727Z,97.2382
2023-04-16T08:49:37.434Z,96.9579
2023-04-16T08:50:38.406Z,97.0412
2023-04-16T08:51:39.225Z,97.2277
2023-04-16T08:52:39.912Z,97.6012
2023-04-16T08:53:40.738Z,97.8321
2023-04-16T08:54:41.496Z,97.1221
2023-04-16T08:55:42.289Z,97.2987
2023-04-16T11:00:38.375Z,97.4256
2023-04-16T11:26:09.643Z,97.6608
2023-04-16T11:41:49.429Z,96.3241
2023-04-16T11:42:20.271Z,97.4136
2023-04-16T11:43:21.076Z,97.7435
2023-04-16T11:44:21.949Z,97.5948
2023-04-16T11:45:22.931Z,97.8128
2023-04-16T11:46:27.841Z,98.0455
2023-04-16T11:47:25.994Z,98.1368
2023-04-16T11:48:26.917Z,98.2294
2023-04-16T11:49:27.715Z,98.3790
2023-04-16T11:50:28.533Z,98.3330
2023-04-16T11:51:29.368Z,98.2878
2023-04-16T11:52:30.239Z,98.0889
2023-04-16T11:53:31.052Z,97.8981
2023-04-16T11:54:31.819Z,97.9865
2023-04-16T11:55:32.623Z,98.1113
2023-04-16T11:56:33.469Z,98.1847
2023-04-16T11:57:35.782Z,97.8374
2023-04-16T11:58:36.821Z,97.9254
2023-04-16T11:59:36.751Z,97.9982
2023-04-16T12:00:38.351Z,97.8206
2023-04-16T12:01:40.777Z,97.6652
2023-04-16T12:02:43.403Z,97.4291
2023-04-16T12:03:46.066Z,97.6404
2023-04-16T12:42:25.168Z,97.2206
2023-04-16T13:08:26.719Z,96.4340
2023-04-16T13:08:57.038Z,95.7427
2023-04-16T13:09:57.797Z,96.6739
2023-04-16T13:10:58.601Z,97.2096
2023-04-16T13:11:59.401Z,97.5022
2023-04-16T13:13:00.258Z,97.3798
2023-04-16T13:14:01.086Z,96.9565
2023-04-16T13:15:02.193Z,96.6597
2023-04-16T13:16:02.973Z,96.0098
2023-04-16T13:17:03.769Z,96.0174
2023-04-16T13:18:04.642Z,95.8017
2023-04-16T13:19:05.440Z,95.9532
2023-04-16T13:20:06.205Z,95.7802
2023-04-16T13:21:07.003Z,96.1650
2023-04-16T13:22:08.589Z,96.7475
2023-04-16T13:23:09.367Z,96.8969
2023-04-16T13:24:10.123Z,96.9373
2023-04-16T13:25:10.873Z,97.3559
2023-04-16T13:26:11.597Z,96.7180
2023-04-16T13:27:12.364Z,96.8973
2023-04-16T13:28:13.106Z,97.1948
2023-04-16T13:29:13.853Z,97.2468
2023-04-16T13:30:14.587Z,96.8048
2023-04-16T13:31:15.388Z,95.8890
2023-04-16T13:32:16.113Z,96.3721
2023-04-16T13:33:16.978Z,96.4622
2023-04-16T13:34:17.719Z,96.6009
2023-04-16T13:35:18.445Z,95.7238
2023-04-16T13:36:19.220Z,94.7399
2023-04-16T13:37:19.951Z,95.5538
2023-04-16T13:38:20.719Z,95.9003
2023-04-16T13:39:21.617Z,95.3165
2023-04-16T13:40:22.295Z,94.9731
2023-04-16T13:41:23.066Z,95.4832
2023-04-16T13:42:24.142Z,95.5507
2023-04-16T13:43:24.909Z,95.5050
2023-04-16T13:44:25.656Z,95.5934
2023-04-16T13:45:26.414Z,95.3761
2023-04-16T13:46:27.147Z,94.5750
2023-04-16T13:47:27.889Z,94.5024
2023-04-16T13:48:28.688Z,93.9003
2023-04-16T13:49:29.743Z,95.1953
2023-04-16T13:50:30.555Z,95.4978
2023-04-16T13:51:32.132Z,95.4747
2023-04-16T13:52:32.929Z,95.7995
2023-04-16T13:53:33.745Z,95.8358
2023-04-16T13:54:34.737Z,95.5211
2023-04-16T13:55:35.605Z,95.1219
2023-04-16T13:56:36.405Z,95.4122
2023-04-16T13:57:37.198Z,96.0323
2023-04-16T13:58:38.570Z,96.1702
2023-04-16T13:59:40.573Z,95.5424
2023-04-16T14:00:41.413Z,95.5665
2023-04-16T14:01:42.218Z,95.6338
2023-04-16T14:02:43.176Z,95.4752
2023-04-16T14:03:44.364Z,95.0672
2023-04-16T14:04:45.555Z,95.3333
2023-04-16T14:05:47.133Z,95.8879
2023-04-16T14:06:48.508Z,96.0468
2023-04-16T14:07:49.567Z,96.0244
2023-04-16T14:08:50.383Z,96.4737
2023-04-16T14:09:51.156Z,96.5945
2023-04-16T14:10:52.638Z,96.5358
2023-04-16T14:11:54.656Z,96.1417
2023-04-16T14:12:55.391Z,96.3872
2023-04-16T14:13:56.234Z,95.9856
2023-04-16T14:14:57.009Z,96.3063
2023-04-16T14:15:57.869Z,95.7795
2023-04-16T14:16:59.669Z,96.1834
2023-04-16T14:18:00.660Z,96.1644
2023-04-16T14:19:01.571Z,95.9642
2023-04-16T14:20:03.025Z,95.7576
2023-04-16T14:21:03.736Z,96.1329
2023-04-16T14:22:04.576Z,96.1330
2023-04-16T14:23:05.305Z,96.2227
2023-04-16T14:24:06.063Z,96.6291
2023-04-16T14:25:06.815Z,96.9507
2023-04-16T14:26:07.641Z,97.4159
2023-04-16T14:27:08.507Z,97.0291
2023-04-16T14:28:09.298Z,96.7653
2023-04-16T14:29:10.741Z,97.0044
2023-04-16T14:30:11.638Z,97.1488
2023-04-16T14:31:12.520Z,97.2017
2023-04-16T14:32:13.775Z,97.2954
2023-04-16T14:33:14.540Z,97.4645
2023-04-16T14:34:15.553Z,97.5233
2023-04-16T14:35:16.300Z,97.6244
2023-04-16T14:36:17.233Z,97.4230
2023-04-16T14:37:17.983Z,97.3835
2023-04-16T14:38:18.850Z,97.6317
2023-04-16T14:39:19.647Z,97.4046
2023-04-16T14:40:20.615Z,97.7146
2023-04-16T14:41:21.466Z,97.5142
2023-04-16T14:42:22.257Z,97.1299
2023-04-16T14:43:23.554Z,97.2195
2023-04-16T14:44:25.087Z,97.1703
2023-04-16T14:45:25.886Z,96.9649
2023-04-16T14:46:26.655Z,97.1696
2023-04-16T14:47:27.413Z,97.2869
2023-04-16T14:48:28.235Z,97.1139
2023-04-16T14:49:29.079Z,96.7804
2023-04-16T14:50:30.117Z,95.8074
2023-04-16T14:51:30.919Z,96.3532
2023-04-16T14:52:31.774Z,97.0044
2023-04-16T14:53:32.694Z,97.2997
2023-04-16T14:54:33.544Z,97.0431
2023-04-16T14:55:34.383Z,96.8313
2023-04-16T14:56:35.405Z,97.0266
2023-04-16T14:57:36.239Z,96.7594
2023-04-16T14:58:38.647Z,96.6295
2023-04-16T14:59:40.689Z,97.0873
2023-04-16T15:00:41.561Z,97.4423
2023-04-16T15:01:42.397Z,96.6130
2023-04-16T15:02:43.371Z,96.3007
2023-04-16T15:03:45.732Z,96.8618
2023-04-16T15:04:47.842Z,96.5417
2023-04-16T15:05:49.702Z,96.7505
2023-04-16T15:06:55.515Z,96.4551
